createdAt,value
2016-05-11T00:00:03.540Z,0
2016-05-11T00:01:06.606Z,0
2016-05-11T00:02:00.623Z,0
2016-05-11T00:03:06.986Z,0
2016-05-11T00:04:03.426Z,0
2016-05-11T00:05:00.585Z,0
2016-05-11T00:06:00.166Z,0
2016-05-11T00:07:00.294Z,0
2016-05-11T00:08:00.218Z,0
2016-05-11T00:09:03.222Z,0
2016-05-11T00:09:59.989Z,0
2016-05-11T00:11:00.101Z,0
2016-05-11T00:12:03.261Z,0
2016-05-11T00:13:00.013Z,0
2016-05-11T00:14:03.046Z,0
2016-05-11T00:15:05.972Z,0
2016-05-11T00:16:02.880Z,0
2016-05-11T00:17:02.836Z,0
2016-05-11T00:17:59.635Z,0
2016-05-11T00:18:59.951Z,0
2016-05-11T00:19:59.735Z,0
2016-05-11T00:20:59.674Z,0
2016-05-11T00:21:59.615Z,0
2016-05-11T00:22:59.555Z,0
2016-05-11T00:23:59.339Z,0
2016-05-11T00:24:59.483Z,0
2016-05-11T00:25:59.423Z,0
2016-05-11T00:27:02.457Z,0
2016-05-11T00:27:59.632Z,0
2016-05-11T00:28:59.353Z,0
2016-05-11T00:30:05.949Z,0
2016-05-11T00:31:05.248Z,0
2016-05-11T00:32:02.173Z,0
2016-05-11T00:33:05.192Z,0
2016-05-11T00:33:59.273Z,0
2016-05-11T00:34:59.025Z,0
2016-05-11T00:36:01.809Z,0
2016-05-11T00:37:07.937Z,0
2016-05-11T00:38:01.892Z,0
2016-05-11T00:38:58.833Z,0
2016-05-11T00:39:58.758Z,0
2016-05-11T00:40:58.744Z,0
2016-05-11T00:42:04.731Z,0
2016-05-11T00:43:01.640Z,0
2016-05-11T00:44:04.441Z,0
2016-05-11T00:44:58.599Z,0
2016-05-11T00:46:04.727Z,0
2016-05-11T00:47:01.480Z,0
2016-05-11T00:48:01.622Z,0
2016-05-11T00:48:58.391Z,0
2016-05-11T00:50:04.347Z,0
2016-05-11T00:51:01.146Z,0
2016-05-11T00:52:01.008Z,0
2016-05-11T00:52:58.229Z,0
2016-05-11T00:54:01.373Z,0
2016-05-11T00:55:58.160Z,0
2016-05-11T00:57:01.209Z,0
2016-05-11T00:57:57.993Z,0
2016-05-11T00:59:07.137Z,0
2016-05-11T00:59:58.342Z,0
2016-05-11T01:01:00.861Z,0
2016-05-11T01:01:57.800Z,0
2016-05-11T01:03:00.741Z,0
2016-05-11T01:03:57.853Z,0
2016-05-11T01:04:57.497Z,0
2016-05-11T01:06:00.625Z,0
2016-05-11T01:06:57.611Z,0
2016-05-11T01:07:57.739Z,0
2016-05-11T01:08:57.475Z,0
2016-05-11T01:09:57.603Z,0
2016-05-11T01:10:57.231Z,0
2016-05-11T01:11:57.187Z,0
2016-05-11T01:13:00.144Z,0
2016-05-11T01:13:57.208Z,0
2016-05-11T01:14:57.070Z,0
2016-05-11T01:15:57.385Z,0
2016-05-11T01:17:03.123Z,0
2016-05-11T01:18:03.593Z,0
2016-05-11T01:18:57.221Z,0
2016-05-11T01:20:03.208Z,0
2016-05-11T01:20:56.774Z,0
2016-05-11T01:21:57.074Z,0
2016-05-11T01:22:59.841Z,0
2016-05-11T01:24:00.126Z,0
2016-05-11T01:24:56.737Z,0
2016-05-11T01:25:59.710Z,0
2016-05-11T01:26:56.915Z,0
2016-05-11T01:27:56.652Z,0
2016-05-11T01:29:02.624Z,0
2016-05-11T01:29:59.720Z,0
2016-05-11T01:31:02.472Z,0
2016-05-11T01:31:59.490Z,0
2016-05-11T01:32:59.651Z,0
2016-05-11T01:34:05.590Z,0
2016-05-11T01:35:14.296Z,0
2016-05-11T01:36:02.455Z,0
2016-05-11T01:37:02.223Z,0
2016-05-11T01:38:05.553Z,0
2016-05-11T01:38:56.089Z,0
2016-05-11T01:39:59.044Z,0
2016-05-11T01:40:56.046Z,0
2016-05-11T01:41:58.972Z,0
2016-05-11T01:42:58.974Z,0
2016-05-11T01:43:58.711Z,0
2016-05-11T01:44:56.042Z,0
2016-05-11T01:45:59.122Z,0
2016-05-11T01:46:58.937Z,0
2016-05-11T01:48:01.705Z,0
2016-05-11T01:48:55.897Z,0
2016-05-11T01:49:58.789Z,0
2016-05-11T01:50:58.808Z,0
2016-05-11T01:51:55.498Z,0
2016-05-11T01:52:58.485Z,0
2016-05-11T01:53:55.269Z,0
2016-05-11T01:54:55.177Z,0
2016-05-11T01:55:55.509Z,0
2016-05-11T01:56:55.480Z,0
2016-05-11T01:57:58.155Z,0
2016-05-11T01:58:55.048Z,0
2016-05-11T01:59:55.035Z,0
2016-05-11T02:01:07.162Z,0
2016-05-11T02:02:01.118Z,0
2016-05-11T02:02:58.027Z,0
2016-05-11T02:04:01.374Z,0
2016-05-11T02:04:54.909Z,0
2016-05-11T02:05:55.223Z,0
2016-05-11T02:07:00.866Z,0
2016-05-11T02:07:57.462Z,0
2016-05-11T02:09:00.747Z,0
2016-05-11T02:09:54.717Z,0
2016-05-11T02:11:00.642Z,0
2016-05-11T02:11:57.583Z,0
2016-05-11T02:12:57.570Z,0
2016-05-11T02:14:01.150Z,0
2016-05-11T02:15:00.310Z,0
2016-05-11T02:16:01.141Z,0
2016-05-11T02:16:57.253Z,0
2016-05-11T02:18:00.318Z,0
2016-05-11T02:18:54.539Z,0
2016-05-11T02:19:54.245Z,0
2016-05-11T02:20:57.201Z,0
2016-05-11T02:21:57.157Z,0
2016-05-11T02:23:00.113Z,0
2016-05-11T02:23:57.021Z,0
2016-05-11T02:24:57.524Z,0
2016-05-11T02:25:57.026Z,0
2016-05-11T02:26:56.779Z,0
2016-05-11T02:27:56.735Z,0
2016-05-11T02:29:00.113Z,0
2016-05-11T02:29:59.771Z,0
2016-05-11T02:30:54.353Z,0
2016-05-11T02:31:53.699Z,0
2016-05-11T02:33:02.530Z,0
2016-05-11T02:33:53.611Z,0
2016-05-11T02:34:59.426Z,0
2016-05-11T02:35:53.803Z,0
2016-05-11T02:36:56.509Z,0
2016-05-11T02:37:59.434Z,0
2016-05-11T02:38:53.562Z,0
2016-05-11T02:39:53.346Z,0
2016-05-11T02:40:53.145Z,0
2016-05-11T02:41:53.195Z,0
2016-05-11T02:42:56.166Z,0
2016-05-11T02:43:53.106Z,0
2016-05-11T02:44:53.046Z,0
2016-05-11T02:45:56.003Z,0
2016-05-11T02:46:52.864Z,0
2016-05-11T02:47:59.180Z,0
2016-05-11T02:48:52.730Z,0
2016-05-11T02:50:01.857Z,0
2016-05-11T02:50:55.891Z,0
2016-05-11T02:51:55.738Z,0
2016-05-11T02:52:59.318Z,0
2016-05-11T02:53:55.649Z,0
2016-05-11T02:54:55.558Z,0
2016-05-11T02:56:01.591Z,0
2016-05-11T02:56:55.532Z,0
2016-05-11T02:57:56.221Z,0
2016-05-11T02:58:55.257Z,0
2016-05-11T02:59:55.369Z,0
2016-05-11T03:00:52.746Z,0
2016-05-11T03:01:52.279Z,0
2016-05-11T03:02:54.923Z,0
2016-05-11T03:03:55.237Z,0
2016-05-11T03:04:55.428Z,0
2016-05-11T03:05:52.104Z,0
2016-05-11T03:06:58.700Z,0
2016-05-11T03:07:54.703Z,0
2016-05-11T03:08:52.158Z,0
2016-05-11T03:09:55.129Z,0
2016-05-11T03:10:54.897Z,0
2016-05-11T03:11:54.853Z,0
2016-05-11T03:12:54.762Z,0
2016-05-11T03:13:54.812Z,0
2016-05-11T03:14:54.705Z,0
2016-05-11T03:15:51.708Z,0
2016-05-11T03:17:00.664Z,0
2016-05-11T03:17:51.573Z,0
2016-05-11T03:18:54.700Z,0
2016-05-11T03:19:54.297Z,0
2016-05-11T03:20:51.393Z,0
2016-05-11T03:21:51.208Z,4
2016-05-11T03:22:51.368Z,4
2016-05-11T03:23:51.260Z,4
2016-05-11T03:24:54.420Z,0
2016-05-11T03:25:51.157Z,4
2016-05-11T03:26:51.129Z,4
2016-05-11T03:27:57.413Z,4
2016-05-11T03:28:54.055Z,8
2016-05-11T03:29:53.995Z,4
2016-05-11T03:30:51.271Z,8
2016-05-11T03:31:50.781Z,4
2016-05-11T03:32:50.917Z,8
2016-05-11T03:33:50.929Z,8
2016-05-11T03:34:51.315Z,12
2016-05-11T03:35:50.915Z,16
2016-05-11T03:36:55.010Z,16
2016-05-11T03:37:56.887Z,16
2016-05-11T03:38:56.825Z,16
2016-05-11T03:39:50.780Z,20
2016-05-11T03:40:50.592Z,24
2016-05-11T03:41:59.740Z,24
2016-05-11T03:42:53.669Z,28
2016-05-11T03:43:56.834Z,28
2016-05-11T03:44:53.576Z,36
2016-05-11T03:45:53.630Z,36
2016-05-11T03:46:53.697Z,36
2016-05-11T03:48:05.529Z,40
2016-05-11T03:48:50.455Z,48
2016-05-11T03:49:50.367Z,52
2016-05-11T03:50:56.325Z,52
2016-05-11T03:51:50.592Z,56
2016-05-11T03:52:56.081Z,60
2016-05-11T03:53:56.021Z,64
2016-05-11T03:54:53.134Z,68
2016-05-11T03:55:50.090Z,72
2016-05-11T03:56:49.890Z,76
2016-05-11T03:57:56.002Z,80
2016-05-11T03:58:49.989Z,84
2016-05-11T03:59:50.414Z,92
2016-05-11T04:00:53.028Z,100
2016-05-11T04:01:52.842Z,104
2016-05-11T04:02:52.986Z,112
2016-05-11T04:03:55.957Z,120
2016-05-11T04:04:49.678Z,124
2016-05-11T04:05:58.493Z,132
2016-05-11T04:06:55.636Z,140
2016-05-11T04:07:49.547Z,148
2016-05-11T04:08:49.783Z,152
2016-05-11T04:09:52.458Z,160
2016-05-11T04:10:49.413Z,164
2016-05-11T04:11:49.352Z,172
2016-05-11T04:12:52.184Z,176
2016-05-11T04:13:49.297Z,180
2016-05-11T04:14:52.049Z,188
2016-05-11T04:15:52.130Z,192
2016-05-11T04:16:49.116Z,192
2016-05-11T04:17:49.151Z,200
2016-05-11T04:18:49.013Z,204
2016-05-11T04:19:48.984Z,208
2016-05-11T04:20:51.627Z,212
2016-05-11T04:21:54.943Z,220
2016-05-11T04:22:51.695Z,224
2016-05-11T04:23:51.635Z,232
2016-05-11T04:24:54.748Z,240
2016-05-11T04:25:51.891Z,244
2016-05-11T04:26:54.691Z,252
2016-05-11T04:27:48.584Z,260
2016-05-11T04:28:54.774Z,272
2016-05-11T04:29:48.355Z,280
2016-05-11T04:30:52.498Z,288
2016-05-11T04:31:51.422Z,296
2016-05-11T04:32:51.379Z,304
2016-05-11T04:34:00.553Z,316
2016-05-11T04:34:48.274Z,320
2016-05-11T04:35:51.496Z,332
2016-05-11T04:36:51.186Z,340
2016-05-11T04:37:48.016Z,352
2016-05-11T04:38:48.255Z,360
2016-05-11T04:39:50.897Z,372
2016-05-11T04:40:51.041Z,384
2016-05-11T04:41:56.997Z,400
2016-05-11T04:42:55.405Z,408
2016-05-11T04:43:51.049Z,416
2016-05-11T04:44:48.192Z,428
2016-05-11T04:45:51.288Z,440
2016-05-11T04:46:47.729Z,456
2016-05-11T04:47:50.685Z,484
2016-05-11T04:48:50.749Z,508
2016-05-11T04:49:47.627Z,516
2016-05-11T04:50:47.505Z,528
2016-05-11T04:51:56.367Z,540
2016-05-11T04:52:50.448Z,552
2016-05-11T04:53:47.373Z,560
2016-05-11T04:54:50.359Z,572
2016-05-11T04:55:47.691Z,584
2016-05-11T04:56:50.614Z,596
2016-05-11T04:57:47.259Z,608
2016-05-11T04:58:47.151Z,612
2016-05-11T04:59:47.373Z,624
2016-05-11T05:00:47.438Z,632
2016-05-11T05:01:50.051Z,644
2016-05-11T05:02:46.834Z,648
2016-05-11T05:03:46.978Z,664
2016-05-11T05:04:55.762Z,672
2016-05-11T05:05:46.827Z,680
2016-05-11T05:06:46.767Z,692
2016-05-11T05:07:53.035Z,704
2016-05-11T05:08:52.538Z,720
2016-05-11T05:09:55.681Z,728
2016-05-11T05:10:46.841Z,740
2016-05-11T05:11:46.577Z,752
2016-05-11T05:12:47.127Z,760
2016-05-11T05:13:49.474Z,768
2016-05-11T05:14:52.616Z,776
2016-05-11T05:15:46.775Z,784
2016-05-11T05:16:58.403Z,796
2016-05-11T05:17:49.280Z,804
2016-05-11T05:18:46.299Z,812
2016-05-11T05:19:49.599Z,824
2016-05-11T05:20:52.023Z,832
2016-05-11T05:22:01.151Z,848
2016-05-11T05:22:46.060Z,860
2016-05-11T05:23:46.015Z,868
2016-05-11T05:24:49.050Z,884
2016-05-11T05:25:48.911Z,888
2016-05-11T05:26:48.852Z,892
2016-05-11T05:27:51.807Z,896
2016-05-11T05:28:48.779Z,904
2016-05-11T05:29:48.328Z,904
2016-05-11T05:30:51.957Z,916
2016-05-11T05:31:51.631Z,924
2016-05-11T05:32:48.603Z,928
2016-05-11T05:33:45.418Z,936
2016-05-11T05:34:45.467Z,940
2016-05-11T05:35:51.392Z,944
2016-05-11T05:36:48.941Z,952
2016-05-11T05:37:45.756Z,960
2016-05-11T05:38:48.306Z,968
2016-05-11T05:39:45.262Z,972
2016-05-11T05:40:45.233Z,984
2016-05-11T05:41:45.408Z,992
2016-05-11T05:42:48.005Z,1000
2016-05-11T05:43:45.335Z,1008
2016-05-11T05:44:45.057Z,1012
2016-05-11T05:45:44.919Z,1020
2016-05-11T05:46:45.124Z,1028
2016-05-11T05:47:44.924Z,1036
2016-05-11T05:48:47.708Z,1040
2016-05-11T05:49:50.805Z,1044
2016-05-11T05:50:44.791Z,1052
2016-05-11T05:51:44.685Z,1056
2016-05-11T05:52:47.499Z,1064
2016-05-11T05:53:47.674Z,1068
2016-05-11T05:54:44.865Z,1076
2016-05-11T05:55:50.570Z,1084
2016-05-11T05:56:47.323Z,1092
2016-05-11T05:57:59.451Z,1084
2016-05-11T05:58:44.219Z,1084
2016-05-11T05:59:53.190Z,1088
2016-05-11T06:00:44.725Z,1092
2016-05-11T06:01:50.477Z,1096
2016-05-11T06:02:47.402Z,1096
2016-05-11T06:03:47.045Z,1100
2016-05-11T06:04:44.407Z,1104
2016-05-11T06:05:44.081Z,1108
2016-05-11T06:06:47.022Z,1116
2016-05-11T06:07:49.837Z,1120
2016-05-11T06:08:43.917Z,1128
2016-05-11T06:09:46.765Z,1132
2016-05-11T06:10:43.877Z,1140
2016-05-11T06:11:46.675Z,1144
2016-05-11T06:12:49.429Z,1148
2016-05-11T06:13:46.697Z,1160
2016-05-11T06:14:46.544Z,1160
2016-05-11T06:15:43.890Z,1164
2016-05-11T06:16:46.564Z,1176
2016-05-11T06:17:46.739Z,1176
2016-05-11T06:18:43.554Z,1192
2016-05-11T06:19:48.105Z,1196
2016-05-11T06:20:46.699Z,1208
2016-05-11T06:21:56.218Z,1220
2016-05-11T06:22:48.081Z,1224
2016-05-11T06:23:43.802Z,1236
2016-05-11T06:24:50.070Z,1240
2016-05-11T06:25:49.073Z,1252
2016-05-11T06:26:43.857Z,1260
2016-05-11T06:27:43.579Z,1272
2016-05-11T06:28:44.066Z,1280
2016-05-11T06:29:43.303Z,1292
2016-05-11T06:30:42.790Z,1304
2016-05-11T06:31:42.901Z,1312
2016-05-11T06:32:42.843Z,1324
2016-05-11T06:33:42.642Z,1340
2016-05-11T06:34:42.754Z,1348
2016-05-11T06:35:45.710Z,1356
2016-05-11T06:36:45.712Z,1368
2016-05-11T06:37:43.028Z,1380
2016-05-11T06:38:42.608Z,1388
2016-05-11T06:39:42.564Z,1396
2016-05-11T06:40:45.879Z,1408
2016-05-11T06:41:42.272Z,1416
2016-05-11T06:42:48.244Z,1424
2016-05-11T06:43:45.340Z,1432
2016-05-11T06:44:42.296Z,1436
2016-05-11T06:45:44.956Z,1444
2016-05-11T06:46:51.067Z,1452
2016-05-11T06:47:51.398Z,1464
2016-05-11T06:48:48.104Z,1468
2016-05-11T06:49:48.622Z,1484
2016-05-11T06:50:45.047Z,1488
2016-05-11T06:51:44.987Z,1496
2016-05-11T06:52:41.927Z,1500
2016-05-11T06:53:41.727Z,1508
2016-05-11T06:54:47.854Z,1516
2016-05-11T06:55:44.794Z,1524
2016-05-11T06:56:41.891Z,1528
2016-05-11T06:57:47.737Z,1536
2016-05-11T06:58:44.881Z,1540
2016-05-11T06:59:44.602Z,1544
2016-05-11T07:00:50.308Z,1556
2016-05-11T07:01:46.921Z,1560
2016-05-11T07:02:44.500Z,1564
2016-05-11T07:03:44.441Z,1576
2016-05-11T07:04:47.804Z,1584
2016-05-11T07:05:47.353Z,1592
2016-05-11T07:06:41.418Z,1596
2016-05-11T07:07:44.280Z,1604
2016-05-11T07:08:41.267Z,1612
2016-05-11T07:09:41.442Z,1616
2016-05-11T07:10:44.241Z,1620
2016-05-11T07:11:47.087Z,1624
2016-05-11T07:12:44.121Z,1628
2016-05-11T07:13:40.875Z,1636
2016-05-11T07:14:47.064Z,1640
2016-05-11T07:15:41.098Z,1648
2016-05-11T07:16:40.897Z,1652
2016-05-11T07:17:44.041Z,1644
2016-05-11T07:18:46.841Z,1648
2016-05-11T07:19:40.827Z,1648
2016-05-11T07:20:46.549Z,1656
2016-05-11T07:21:43.880Z,1660
2016-05-11T07:22:47.054Z,1664
2016-05-11T07:23:40.573Z,1672
2016-05-11T07:24:40.591Z,1680
2016-05-11T07:25:40.531Z,1708
2016-05-11T07:26:43.675Z,1732
2016-05-11T07:27:40.475Z,1752
2016-05-11T07:28:40.415Z,1796
2016-05-11T07:29:40.573Z,1856
2016-05-11T07:30:40.951Z,1872
2016-05-11T07:31:40.220Z,1880
2016-05-11T07:32:40.175Z,1872
2016-05-11T07:33:43.162Z,1892
2016-05-11T07:34:43.103Z,1944
2016-05-11T07:35:40.087Z,1968
2016-05-11T07:36:43.295Z,1972
2016-05-11T07:37:48.829Z,1956
2016-05-11T07:38:42.020Z,1936
2016-05-11T07:39:46.367Z,1896
2016-05-11T07:40:46.025Z,1888
2016-05-11T07:41:42.809Z,1880
2016-05-11T07:42:45.921Z,1868
2016-05-11T07:43:39.421Z,1860
2016-05-11T07:44:42.708Z,1844
2016-05-11T07:45:39.458Z,1836
2016-05-11T07:46:40.320Z,1828
2016-05-11T07:47:42.606Z,1824
2016-05-11T07:48:45.469Z,1832
2016-05-11T07:49:45.861Z,1848
2016-05-11T07:50:46.599Z,1848
2016-05-11T07:51:42.396Z,1852
2016-05-11T07:52:39.335Z,1852
2016-05-11T07:53:42.166Z,1852
2016-05-11T07:54:45.250Z,1848
2016-05-11T07:55:39.328Z,1852
2016-05-11T07:56:45.146Z,1852
2016-05-11T07:57:42.162Z,1856
2016-05-11T07:58:39.257Z,1848
2016-05-11T07:59:45.061Z,1860
2016-05-11T08:00:39.405Z,1860
2016-05-11T08:01:41.891Z,1860
2016-05-11T08:02:39.660Z,1860
2016-05-11T08:03:38.709Z,1860
2016-05-11T08:04:46.074Z,1864
2016-05-11T08:05:41.652Z,1868
2016-05-11T08:06:39.468Z,1872
2016-05-11T08:07:38.657Z,1872
2016-05-11T08:08:41.613Z,1872
2016-05-11T08:09:38.615Z,1880
2016-05-11T08:10:38.712Z,1876
2016-05-11T08:11:44.671Z,1912
2016-05-11T08:12:41.296Z,1920
2016-05-11T08:13:41.470Z,1884
2016-05-11T08:14:38.598Z,1884
2016-05-11T08:15:44.603Z,1888
2016-05-11T08:16:38.166Z,1896
2016-05-11T08:17:41.231Z,1896
2016-05-11T08:18:38.203Z,1900
2016-05-11T08:19:40.986Z,1908
2016-05-11T08:20:40.927Z,1904
2016-05-11T08:21:37.914Z,1908
2016-05-11T08:22:38.104Z,1904
2016-05-11T08:23:37.966Z,1904
2016-05-11T08:24:37.985Z,1908
2016-05-11T08:25:41.066Z,1904
2016-05-11T08:26:37.880Z,1912
2016-05-11T08:27:37.789Z,1916
2016-05-11T08:28:37.730Z,1908
2016-05-11T08:29:40.716Z,1908
2016-05-11T08:30:37.657Z,1916
2016-05-11T08:31:40.613Z,1912
2016-05-11T08:32:37.552Z,1960
2016-05-11T08:33:37.555Z,2024
2016-05-11T08:34:37.465Z,1916
2016-05-11T08:35:37.639Z,1932
2016-05-11T08:36:43.720Z,1932
2016-05-11T08:37:40.348Z,1936
2016-05-11T08:38:43.318Z,1936
2016-05-11T08:39:37.462Z,1936
2016-05-11T08:40:40.246Z,1928
2016-05-11T08:41:40.265Z,1924
2016-05-11T08:42:37.314Z,1928
2016-05-11T08:43:37.207Z,1932
2016-05-11T08:44:37.476Z,1940
2016-05-11T08:45:37.650Z,1940
2016-05-11T08:46:37.169Z,1948
2016-05-11T08:47:36.906Z,1952
2016-05-11T08:48:36.720Z,1948
2016-05-11T08:49:37.303Z,1948
2016-05-11T08:50:36.805Z,1940
2016-05-11T08:51:37.103Z,1940
2016-05-11T08:52:36.966Z,1940
2016-05-11T08:53:36.656Z,1940
2016-05-11T08:54:36.658Z,1944
2016-05-11T08:55:36.474Z,1936
2016-05-11T08:56:36.586Z,1936
2016-05-11T08:57:39.386Z,1916
2016-05-11T08:58:36.372Z,1928
2016-05-11T08:59:36.422Z,1932
2016-05-11T09:00:39.800Z,1952
2016-05-11T09:01:36.521Z,1956
2016-05-11T09:02:42.290Z,1960
2016-05-11T09:03:39.230Z,1980
2016-05-11T09:04:36.530Z,1988
2016-05-11T09:05:38.985Z,2000
2016-05-11T09:06:39.315Z,2012
2016-05-11T09:07:36.038Z,2012
2016-05-11T09:08:36.009Z,2024
2016-05-11T09:09:38.980Z,2012
2016-05-11T09:10:38.827Z,2012
2016-05-11T09:11:35.907Z,2024
2016-05-11T09:12:36.082Z,2032
2016-05-11T09:13:35.820Z,2044
2016-05-11T09:14:39.009Z,2032
2016-05-11T09:15:35.840Z,2020
2016-05-11T09:16:38.530Z,2032
2016-05-11T09:17:36.095Z,2024
2016-05-11T09:18:36.223Z,2000
2016-05-11T09:19:35.741Z,2016
2016-05-11T09:20:35.339Z,2032
2016-05-11T09:21:38.356Z,2048
2016-05-11T09:22:38.281Z,2016
2016-05-11T09:23:41.456Z,1476
2016-05-11T09:24:35.396Z,2056
2016-05-11T09:25:35.383Z,2272
2016-05-11T09:26:38.292Z,2308
2016-05-11T09:27:35.388Z,2248
2016-05-11T09:28:38.047Z,2156
2016-05-11T09:29:35.144Z,2112
2016-05-11T09:30:35.740Z,2080
2016-05-11T09:31:35.055Z,2048
2016-05-11T09:32:41.136Z,2044
2016-05-11T09:33:40.857Z,2040
2016-05-11T09:34:34.923Z,2048
2016-05-11T09:35:38.082Z,2056
2016-05-11T09:36:34.865Z,2068
2016-05-11T09:37:34.821Z,2072
2016-05-11T09:38:34.651Z,2072
2016-05-11T09:39:34.577Z,2084
2016-05-11T09:40:40.736Z,2116
2016-05-11T09:41:34.504Z,2140
2016-05-11T09:42:37.710Z,2152
2016-05-11T09:43:35.181Z,2164
2016-05-11T09:44:34.559Z,2176
2016-05-11T09:45:34.311Z,2264
2016-05-11T09:46:40.455Z,2168
2016-05-11T09:47:37.395Z,2208
2016-05-11T09:48:43.414Z,2240
2016-05-11T09:49:34.306Z,2244
2016-05-11T09:50:43.341Z,2208
2016-05-11T09:51:34.062Z,2220
2016-05-11T09:52:34.175Z,2456
2016-05-11T09:53:33.989Z,2808
2016-05-11T09:54:34.102Z,2532
2016-05-11T09:55:37.229Z,2448
2016-05-11T09:56:37.278Z,2224
2016-05-11T09:57:34.188Z,2240
2016-05-11T09:58:37.394Z,2296
2016-05-11T09:59:40.115Z,2312
2016-05-11T10:00:33.977Z,2304
2016-05-11T10:01:36.651Z,2468
2016-05-11T10:02:40.060Z,2368
2016-05-11T10:03:33.719Z,2620
2016-05-11T10:04:39.753Z,3180
2016-05-11T10:05:36.678Z,3236
2016-05-11T10:06:36.446Z,3248
2016-05-11T10:07:33.387Z,3312
2016-05-11T10:08:33.515Z,3188
2016-05-11T10:09:33.688Z,3404
2016-05-11T10:10:33.645Z,3624
2016-05-11T10:11:33.523Z,3648
2016-05-11T10:12:33.353Z,3500
2016-05-11T10:13:33.293Z,3096
2016-05-11T10:14:33.265Z,2676
2016-05-11T10:15:33.533Z,2792
2016-05-11T10:16:36.489Z,2332
2016-05-11T10:17:33.117Z,2008
2016-05-11T10:18:36.291Z,2016
2016-05-11T10:19:33.435Z,1972
2016-05-11T10:20:33.000Z,1940
2016-05-11T10:21:33.753Z,2628
2016-05-11T10:22:36.239Z,2472
2016-05-11T10:23:38.991Z,2212
2016-05-11T10:24:33.089Z,2220
2016-05-11T10:25:33.013Z,2576
2016-05-11T10:26:36.016Z,2112
2016-05-11T10:27:33.112Z,2008
2016-05-11T10:28:35.849Z,1856
2016-05-11T10:29:32.617Z,1796
2016-05-11T10:30:36.574Z,1920
2016-05-11T10:32:53.689Z,3224
2016-05-11T10:33:09.550Z,3264
2016-05-11T10:34:16.006Z,3248
2016-05-11T10:35:06.727Z,3468
2016-05-11T10:36:09.559Z,4088
2016-05-11T10:37:05.935Z,3664
2016-05-11T10:38:09.080Z,3572
2016-05-11T10:39:08.629Z,3108
2016-05-11T10:40:09.069Z,3372
2016-05-11T10:41:05.916Z,4280
2016-05-11T10:42:08.794Z,4444
2016-05-11T10:43:08.702Z,4144
2016-05-11T10:44:09.048Z,3828
2016-05-11T10:45:07.176Z,3568
2016-05-11T10:46:05.835Z,3464
2016-05-11T10:47:05.525Z,3484
2016-05-11T10:48:08.668Z,2912
2016-05-11T10:49:13.515Z,2976
2016-05-11T10:50:08.862Z,3436
2016-05-11T10:51:09.036Z,3604
2016-05-11T10:52:09.211Z,3812
2016-05-11T10:53:05.542Z,4168
2016-05-11T10:54:10.623Z,5240
2016-05-11T10:55:05.281Z,5580
2016-05-11T10:56:05.362Z,5704
2016-05-11T10:57:05.333Z,5340
2016-05-11T10:58:05.211Z,4472
2016-05-11T10:59:09.636Z,4580
2016-05-11T11:00:08.014Z,4884
2016-05-11T11:01:05.485Z,4832
2016-05-11T11:02:05.113Z,4948
2016-05-11T11:03:05.053Z,4632
2016-05-11T11:04:06.666Z,4448
2016-05-11T11:05:05.011Z,3980
2016-05-11T11:06:05.155Z,3988
2016-05-11T11:07:05.002Z,4596
2016-05-11T11:08:05.019Z,4384
2016-05-11T11:09:06.694Z,4564
2016-05-11T11:10:04.727Z,4264
2016-05-11T11:11:04.700Z,4272
2016-05-11T11:12:06.812Z,4280
2016-05-11T11:13:04.470Z,4192
2016-05-11T11:14:04.614Z,3972
2016-05-11T11:15:07.632Z,3568
2016-05-11T11:16:11.947Z,3464
2016-05-11T11:17:04.434Z,3684
2016-05-11T11:18:07.407Z,3644
2016-05-11T11:19:07.831Z,4540
2016-05-11T11:20:04.676Z,5080
2016-05-11T11:21:04.477Z,4228
2016-05-11T11:22:07.354Z,3928
2016-05-11T11:23:04.076Z,3696
2016-05-11T11:24:07.437Z,3860
2016-05-11T11:25:04.159Z,3920
2016-05-11T11:26:07.475Z,4100
2016-05-11T11:27:04.477Z,4140
2016-05-11T11:28:06.980Z,4172
2016-05-11T11:29:05.654Z,4052
2016-05-11T11:30:06.969Z,4000
2016-05-11T11:31:04.222Z,3836
2016-05-11T11:32:06.834Z,3676
2016-05-11T11:33:03.822Z,3728
2016-05-11T11:34:07.777Z,4128
2016-05-11T11:35:03.780Z,4400
2016-05-11T11:36:03.719Z,4676
2016-05-11T11:37:03.832Z,5164
2016-05-11T11:38:06.585Z,5732
2016-05-11T11:39:03.977Z,6288
2016-05-11T11:40:03.480Z,6336
2016-05-11T11:41:03.546Z,5880
2016-05-11T11:42:03.502Z,6220
2016-05-11T11:43:06.520Z,5888
2016-05-11T11:44:03.523Z,5608
2016-05-11T11:45:03.322Z,6072
2016-05-11T11:46:03.482Z,6224
2016-05-11T11:47:03.327Z,6112
2016-05-11T11:48:04.096Z,6168
2016-05-11T11:49:06.396Z,5904
2016-05-11T11:50:02.945Z,5576
2016-05-11T11:51:03.853Z,5684
2016-05-11T11:52:03.295Z,5876
2016-05-11T11:53:02.828Z,5560
2016-05-11T11:54:03.846Z,5300
2016-05-11T11:55:05.895Z,5156
2016-05-11T11:56:02.696Z,5144
2016-05-11T11:57:02.667Z,5368
2016-05-11T11:58:02.825Z,5408
2016-05-11T11:59:12.032Z,5576
2016-05-11T12:00:03.551Z,5360
2016-05-11T12:01:12.084Z,4992
2016-05-11T12:02:02.477Z,5036
2016-05-11T12:03:02.792Z,5072
2016-05-11T12:04:02.530Z,5176
2016-05-11T12:05:08.532Z,5372
2016-05-11T12:06:02.441Z,5516
2016-05-11T12:07:02.475Z,5256
2016-05-11T12:08:02.650Z,4804
2016-05-11T12:09:08.527Z,4288
2016-05-11T12:10:05.171Z,3972
2016-05-11T12:11:11.299Z,3912
2016-05-11T12:12:02.661Z,3636
2016-05-11T12:13:05.897Z,3692
2016-05-11T12:14:05.010Z,4108
2016-05-11T12:15:02.918Z,4052
2016-05-11T12:16:02.952Z,4360
2016-05-11T12:17:02.205Z,4472
2016-05-11T12:18:05.160Z,4548
2016-05-11T12:19:04.929Z,4696
2016-05-11T12:20:02.088Z,5328
2016-05-11T12:21:04.919Z,5340
2016-05-11T12:22:01.640Z,5556
2016-05-11T12:23:01.643Z,5828
2016-05-11T12:24:01.740Z,5480
2016-05-11T12:25:01.554Z,4988
2016-05-11T12:26:04.557Z,4732
2016-05-11T12:27:01.654Z,4744
2016-05-11T12:28:01.813Z,4824
2016-05-11T12:29:01.784Z,5000
2016-05-11T12:30:01.475Z,5192
2016-05-11T12:31:04.524Z,5400
2016-05-11T12:32:01.573Z,5636
2016-05-11T12:33:01.342Z,6020
2016-05-11T12:34:07.407Z,6772
2016-05-11T12:35:04.285Z,6536
2016-05-11T12:36:01.459Z,6748
2016-05-11T12:37:01.831Z,6988
2016-05-11T12:38:01.553Z,6960
2016-05-11T12:39:01.322Z,6440
2016-05-11T12:40:04.434Z,6460
2016-05-11T12:41:07.203Z,6472
2016-05-11T12:42:01.939Z,6644
2016-05-11T12:43:04.272Z,6560
2016-05-11T12:44:00.916Z,6032
2016-05-11T12:45:04.404Z,5700
2016-05-11T12:46:01.096Z,5852
2016-05-11T12:47:04.156Z,5956
2016-05-11T12:48:04.712Z,5544
2016-05-11T12:49:04.284Z,5384
2016-05-11T12:50:00.902Z,5320
2016-05-11T12:51:04.020Z,5328
2016-05-11T12:52:01.167Z,5344
2016-05-11T12:53:03.797Z,5424
2016-05-11T12:54:07.098Z,4708
2016-05-11T12:55:01.056Z,4088
2016-05-11T12:56:00.920Z,3588
2016-05-11T12:57:02.251Z,3388
2016-05-11T12:58:00.630Z,3572
2016-05-11T12:59:13.884Z,3300
2016-05-11T13:00:02.685Z,3420
2016-05-11T13:01:01.501Z,3560
2016-05-11T13:02:03.004Z,3700
2016-05-11T13:03:03.866Z,4084
2016-05-11T13:04:00.650Z,4492
2016-05-11T13:05:00.372Z,5064
2016-05-11T13:06:00.547Z,5388
2016-05-11T13:07:00.503Z,5256
2016-05-11T13:08:00.990Z,5348
2016-05-11T13:09:00.396Z,5380
2016-05-11T13:10:03.339Z,5356
2016-05-11T13:11:03.716Z,5712
2016-05-11T13:12:00.263Z,5556
2016-05-11T13:13:00.172Z,5248
2016-05-11T13:13:59.847Z,5204
2016-05-11T13:15:00.069Z,5236
2016-05-11T13:16:00.102Z,5116
2016-05-11T13:17:00.230Z,5208
2016-05-11T13:18:00.249Z,5588
2016-05-11T13:18:59.970Z,5168
2016-05-11T13:20:00.098Z,4692
2016-05-11T13:21:03.009Z,4216
2016-05-11T13:22:03.075Z,3808
2016-05-11T13:22:59.747Z,3436
2016-05-11T13:23:59.671Z,3084
2016-05-11T13:25:02.630Z,2812
2016-05-11T13:26:00.302Z,2716
2016-05-11T13:26:59.507Z,2712
2016-05-11T13:27:59.525Z,2844
2016-05-11T13:29:00.060Z,3068
2016-05-11T13:29:59.687Z,3356
2016-05-11T13:30:59.456Z,3560
2016-05-11T13:31:59.396Z,3636
2016-05-11T13:33:08.479Z,4056
2016-05-11T13:33:59.729Z,4296
2016-05-11T13:35:02.984Z,4956
2016-05-11T13:35:59.328Z,4860
2016-05-11T13:37:02.239Z,4536
2016-05-11T13:38:05.040Z,4112
2016-05-11T13:39:02.511Z,3792
2016-05-11T13:40:02.155Z,3456
2016-05-11T13:40:59.030Z,3352
2016-05-11T13:41:59.047Z,3512
2016-05-11T13:43:01.897Z,3672
2016-05-11T13:43:58.928Z,3804
2016-05-11T13:45:01.887Z,3916
2016-05-11T13:45:58.825Z,4176